createdAt,value
2023-01-27T00:01:42.156Z,25.48
2023-01-27T00:04:54.265Z,27.00
2023-01-27T00:08:06.202Z,26.75
2023-01-27T00:11:32.652Z,26.73
2023-01-27T00:14:44.638Z,27.40
2023-01-27T00:17:56.673Z,28.48
2023-01-27T00:21:23.183Z,29.85
2023-01-27T00:24:41.573Z,31.73
2023-01-27T00:27:54.033Z,28.73
2023-01-27T00:31:08.345Z,26.18
2023-01-27T00:34:20.583Z,23.65
2023-01-27T00:37:32.675Z,23.88
2023-01-27T00:40:46.713Z,25.70
2023-01-27T00:43:59.991Z,23.23
2023-01-27T00:47:12.075Z,24.53
2023-01-27T00:50:24.953Z,25.38
2023-01-27T00:53:37.278Z,25.60
2023-01-27T00:56:49.368Z,24.48
2023-01-27T01:00:14.772Z,24.88
2023-01-27T01:03:29.562Z,26.90
2023-01-27T01:06:42.378Z,28.90
2023-01-27T01:09:55.040Z,27.23
2023-01-27T01:16:47.834Z,25.75
2023-01-27T01:19:59.785Z,25.43
2023-01-27T01:23:12.498Z,26.30
2023-01-27T01:26:25.130Z,28.98
2023-01-27T01:29:39.004Z,28.38
2023-01-27T01:32:58.572Z,28.98
2023-01-27T01:36:25.632Z,29.70
2023-01-27T01:39:38.546Z,28.73
2023-01-27T01:43:01.896Z,28.33
2023-01-27T01:46:17.659Z,27.38
2023-01-27T01:49:37.765Z,32.05
2023-01-27T01:52:49.769Z,32.45
2023-01-27T01:56:02.428Z,32.33
2023-01-27T01:59:19.211Z,32.15
2023-01-27T02:02:32.942Z,28.53
2023-01-27T02:05:49.468Z,29.20
2023-01-27T02:09:02.317Z,32.23
2023-01-27T02:12:14.561Z,32.08
2023-01-27T02:15:26.887Z,30.30
2023-01-27T02:18:38.901Z,28.20
2023-01-27T02:21:52.423Z,29.00
2023-01-27T02:25:10.534Z,29.93
2023-01-27T02:28:22.999Z,31.90
2023-01-27T02:31:35.080Z,30.30
2023-01-27T02:34:47.606Z,29.93
2023-01-27T02:38:00.623Z,28.35
2023-01-27T02:41:18.865Z,30.18
2023-01-27T02:44:31.792Z,30.08
2023-01-27T02:47:44.005Z,30.35
2023-01-27T02:50:56.299Z,29.20
2023-01-27T02:54:08.789Z,28.40
2023-01-27T02:57:20.920Z,29.48
2023-01-27T03:00:35.206Z,28.98
2023-01-27T03:03:48.097Z,26.70
2023-01-27T03:07:01.952Z,28.20
2023-01-27T03:10:16.718Z,29.35
2023-01-27T03:13:31.905Z,28.75
2023-01-27T03:16:58.524Z,28.53
2023-01-27T03:20:12.163Z,27.73
2023-01-27T03:23:25.708Z,26.58
2023-01-27T03:26:38.547Z,26.43
2023-01-27T03:30:01.623Z,26.53
2023-01-27T03:33:16.255Z,24.53
2023-01-27T03:36:47.705Z,26.20
2023-01-27T03:40:14.323Z,27.10
2023-01-27T03:43:40.843Z,25.83
2023-01-27T03:46:54.746Z,25.78
2023-01-27T03:50:08.930Z,25.98
2023-01-27T03:53:20.998Z,26.38
2023-01-27T03:56:33.046Z,25.88
2023-01-27T03:59:45.119Z,23.20
2023-01-27T04:03:11.806Z,23.20
2023-01-27T04:06:41.976Z,22.95
2023-01-27T04:09:55.943Z,23.25
2023-01-27T04:20:40.912Z,22.43
2023-01-27T04:24:05.981Z,19.90
2023-01-27T04:27:20.574Z,20.35
2023-01-27T04:38:07.279Z,20.50
2023-01-27T04:44:59.689Z,20.05
2023-01-27T04:48:12.920Z,20.52
2023-01-27T04:51:36.044Z,20.33
2023-01-27T04:58:24.170Z,20.68
2023-01-27T05:09:13.564Z,20.70
2023-01-27T05:12:37.630Z,19.93
2023-01-27T05:15:51.630Z,21.28
2023-01-27T05:19:03.661Z,19.90
2023-01-27T05:22:15.893Z,21.35
2023-01-27T05:25:27.996Z,21.35
2023-01-27T05:32:21.178Z,21.35
2023-01-27T05:39:16.326Z,21.60
2023-01-27T05:42:28.524Z,21.58
2023-01-27T05:49:21.003Z,23.70
2023-01-27T05:56:32.052Z,22.58
2023-01-27T06:03:25.497Z,22.40
2023-01-27T06:06:39.452Z,20.68
2023-01-27T06:33:16.099Z,24.60
2023-01-27T06:36:29.431Z,24.83
2023-01-27T06:39:41.638Z,24.68
2023-01-27T06:42:53.639Z,25.20
2023-01-27T06:46:06.151Z,27.33
2023-01-27T06:49:19.115Z,25.93
2023-01-27T06:52:31.300Z,26.35
2023-01-27T06:55:45.054Z,73.68
2023-01-27T06:58:57.103Z,37.33
2023-01-27T07:02:09.192Z,29.10
2023-01-27T07:05:23.733Z,27.20
2023-01-27T07:08:35.983Z,27.45
2023-01-27T07:11:48.707Z,25.58
2023-01-27T07:15:00.912Z,31.05
2023-01-27T07:18:14.490Z,27.25
2023-01-27T07:21:26.720Z,24.60
2023-01-27T07:24:38.871Z,24.33
2023-01-27T07:27:52.143Z,24.18
2023-01-27T07:31:08.377Z,24.88
2023-01-27T07:34:21.233Z,24.95
2023-01-27T07:37:33.874Z,24.80
2023-01-27T07:40:46.350Z,24.70
2023-01-27T07:43:58.555Z,24.88
2023-01-27T07:47:12.324Z,23.60
2023-01-27T07:50:25.627Z,22.95
2023-01-27T07:53:37.659Z,23.53
2023-01-27T07:56:49.830Z,22.85
2023-01-27T08:00:01.832Z,21.50
2023-01-27T08:03:25.598Z,23.00
2023-01-27T08:06:38.274Z,22.93
2023-01-27T08:09:50.437Z,23.13
2023-01-27T08:13:02.695Z,23.00
2023-01-27T08:16:19.172Z,21.93
2023-01-27T08:19:31.463Z,39.18
2023-01-27T08:22:43.772Z,26.08
2023-01-27T08:25:59.860Z,31.50
2023-01-27T08:29:12.035Z,23.35
2023-01-27T08:32:24.178Z,24.23
2023-01-27T08:35:37.227Z,22.38
2023-01-27T08:38:50.951Z,23.65
2023-01-27T08:42:03.064Z,23.58
2023-01-27T08:45:16.964Z,23.00
2023-01-27T08:48:29.204Z,48.03
2023-01-27T08:51:41.731Z,32.63
2023-01-27T08:54:53.920Z,52.78
2023-01-27T08:58:06.144Z,27.63
2023-01-27T09:01:18.630Z,24.13
2023-01-27T09:04:31.153Z,25.33
2023-01-27T09:07:43.679Z,24.48
2023-01-27T09:10:56.191Z,22.65
2023-01-27T09:14:08.695Z,24.35
2023-01-27T09:17:21.115Z,22.28
2023-01-27T09:20:34.624Z,30.50
2023-01-27T09:23:46.647Z,47.38
2023-01-27T09:27:00.900Z,38.40
2023-01-27T09:30:17.732Z,28.93
2023-01-27T09:33:30.327Z,27.73
2023-01-27T09:36:47.124Z,24.93
2023-01-27T09:40:03.777Z,30.45
2023-01-27T09:43:57.289Z,28.30
2023-01-27T09:47:39.102Z,26.85
2023-01-27T09:50:56.770Z,26.55
2023-01-27T09:54:48.810Z,24.80
2023-01-27T09:58:07.596Z,27.05
2023-01-27T10:01:25.545Z,40.73
2023-01-27T10:04:56.966Z,36.63
2023-01-27T10:08:38.212Z,31.43
2023-01-27T10:11:57.999Z,27.30
2023-01-27T10:15:22.546Z,26.03
2023-01-27T10:18:50.955Z,28.48
2023-01-27T10:22:11.936Z,27.58
2023-01-27T10:25:35.994Z,26.58
2023-01-27T10:28:53.393Z,27.75
2023-01-27T10:32:12.002Z,41.80
2023-01-27T10:35:28.452Z,57.10
2023-01-27T10:38:46.471Z,29.23
2023-01-27T10:42:06.253Z,28.05
2023-01-27T10:45:41.928Z,28.13
2023-01-27T10:48:59.278Z,27.85
2023-01-27T10:52:15.960Z,28.95
2023-01-27T10:55:32.749Z,27.98
2023-01-27T10:58:55.826Z,28.63
2023-01-27T11:02:17.616Z,27.68
2023-01-27T11:05:35.462Z,27.63
2023-01-27T11:08:52.162Z,24.75
2023-01-27T11:12:07.793Z,29.45
2023-01-27T11:15:28.381Z,27.80
2023-01-27T11:18:46.052Z,27.58
2023-01-27T11:22:07.630Z,26.90
2023-01-27T11:25:25.181Z,30.55
2023-01-27T11:28:43.518Z,33.28
2023-01-27T11:32:01.325Z,27.93
2023-01-27T11:35:18.133Z,29.58
2023-01-27T11:38:31.216Z,27.18
2023-01-27T11:41:48.202Z,28.00
2023-01-27T11:45:04.120Z,25.83
2023-01-27T11:48:23.335Z,27.58
2023-01-27T11:51:42.333Z,30.03
2023-01-27T11:55:00.596Z,28.83
2023-01-27T11:58:25.536Z,28.13
2023-01-27T12:01:48.885Z,31.75
2023-01-27T12:05:08.255Z,28.38
2023-01-27T12:08:36.020Z,47.83
2023-01-27T12:11:48.133Z,28.80
2023-01-27T12:15:03.189Z,29.15
2023-01-27T12:18:23.508Z,29.03
2023-01-27T12:21:50.678Z,31.43
2023-01-27T12:25:08.335Z,28.65
2023-01-27T12:28:33.215Z,27.48
2023-01-27T12:31:55.978Z,28.60
2023-01-27T12:35:10.295Z,28.33
2023-01-27T12:38:27.366Z,29.45
2023-01-27T12:44:53.373Z,28.38
2023-01-27T12:48:26.271Z,28.33
2023-01-27T12:51:48.731Z,27.15
2023-01-27T12:55:00.787Z,27.80
2023-01-27T12:58:36.913Z,29.30
2023-01-27T13:01:49.715Z,27.75
2023-01-27T13:05:04.882Z,27.68
2023-01-27T13:08:24.674Z,28.25
2023-01-27T13:11:44.450Z,28.45
2023-01-27T13:15:02.572Z,28.03
2023-01-27T13:18:26.040Z,27.08
2023-01-27T13:21:42.339Z,29.78
2023-01-27T13:24:59.387Z,29.30
2023-01-27T13:28:15.628Z,29.80
2023-01-27T13:31:40.271Z,28.25
2023-01-27T13:34:57.100Z,28.45
2023-01-27T13:38:15.526Z,30.38
2023-01-27T13:41:33.670Z,30.38
2023-01-27T13:44:49.901Z,28.33
2023-01-27T13:48:06.710Z,33.40
2023-01-27T13:51:22.545Z,26.45
2023-01-27T13:54:35.016Z,27.30
2023-01-27T13:58:09.502Z,27.05
2023-01-27T14:01:29.602Z,26.60
2023-01-27T14:04:58.701Z,27.15
2023-01-27T14:08:23.961Z,24.80
2023-01-27T14:11:42.937Z,22.65
2023-01-27T14:15:06.176Z,24.08
2023-01-27T14:18:23.564Z,25.60
2023-01-27T14:21:46.824Z,27.03
2023-01-27T14:25:00.445Z,25.45
2023-01-27T14:31:33.369Z,25.53
2023-01-27T14:35:17.446Z,24.78
2023-01-27T14:38:35.430Z,35.40
2023-01-27T14:41:53.847Z,25.88
2023-01-27T14:45:15.009Z,25.23
2023-01-27T14:48:45.745Z,24.78
2023-01-27T14:52:04.775Z,23.68
2023-01-27T14:55:39.543Z,22.40
2023-01-27T14:59:02.925Z,22.28
2023-01-27T15:02:25.178Z,28.98
2023-01-27T15:05:41.776Z,23.18
2023-01-27T15:09:00.398Z,22.60
2023-01-27T15:12:37.825Z,21.80
2023-01-27T15:16:32.983Z,22.98
2023-01-27T15:20:29.412Z,20.98
2023-01-27T15:24:10.497Z,22.65
2023-01-27T15:27:23.601Z,22.35
2023-01-27T15:30:39.023Z,21.98
2023-01-27T15:33:58.959Z,20.40
2023-01-27T15:37:26.206Z,22.48
2023-01-27T15:40:53.942Z,22.53
2023-01-27T15:44:22.215Z,22.98
2023-01-27T15:47:36.793Z,21.70
2023-01-27T15:50:53.836Z,21.15
2023-01-27T15:57:38.075Z,18.65
2023-01-27T16:00:57.989Z,20.63
2023-01-27T16:04:20.934Z,18.70
2023-01-27T16:07:38.815Z,17.40
2023-01-27T16:10:51.631Z,17.88
2023-01-27T16:14:49.119Z,17.48
2023-01-27T16:18:32.761Z,15.83
2023-01-27T16:21:51.999Z,16.25
2023-01-27T16:25:08.782Z,16.43
2023-01-27T16:28:29.081Z,14.20
2023-01-27T16:31:43.038Z,15.28
2023-01-27T16:35:00.816Z,16.20
2023-01-27T16:38:24.097Z,14.73
2023-01-27T16:41:39.999Z,15.75
2023-01-27T16:44:55.647Z,14.75
2023-01-27T16:48:11.967Z,14.60
2023-01-27T16:51:28.651Z,14.60
2023-01-27T16:54:44.806Z,13.93
2023-01-27T16:57:59.337Z,14.63
2023-01-27T17:01:15.182Z,14.70
2023-01-27T17:04:31.964Z,14.27
2023-01-27T17:07:44.040Z,13.08
2023-01-27T17:11:01.651Z,13.83
2023-01-27T17:14:30.422Z,13.48
2023-01-27T17:17:37.023Z,12.63
2023-01-27T17:20:52.907Z,13.40
2023-01-27T17:24:22.252Z,13.38
2023-01-27T17:27:39.280Z,14.18
2023-01-27T17:34:07.109Z,14.30
2023-01-27T17:37:25.367Z,14.45
2023-01-27T17:40:43.683Z,12.83
2023-01-27T17:43:58.875Z,14.30
2023-01-27T17:47:14.833Z,13.30
2023-01-27T17:50:30.715Z,15.33
2023-01-27T17:53:47.153Z,19.10
2023-01-27T17:57:10.244Z,14.90
2023-01-27T18:00:32.881Z,15.30
2023-01-27T18:03:45.712Z,15.18
2023-01-27T18:06:58.987Z,15.13
2023-01-27T18:10:30.105Z,13.93
2023-01-27T18:13:46.577Z,15.03
2023-01-27T18:17:27.698Z,15.33
2023-01-27T18:20:41.020Z,16.45
2023-01-27T18:23:56.040Z,15.35
2023-01-27T18:27:09.275Z,17.30
2023-01-27T18:30:26.079Z,15.65
2023-01-27T18:37:01.104Z,15.13
2023-01-27T18:40:32.645Z,17.38
2023-01-27T18:43:44.668Z,17.78
2023-01-27T18:46:56.798Z,25.55
2023-01-27T18:50:20.159Z,18.48
2023-01-27T18:53:32.266Z,17.28
2023-01-27T18:56:44.326Z,16.83
2023-01-27T18:59:56.427Z,15.63
2023-01-27T19:03:10.922Z,15.68
2023-01-27T19:06:24.165Z,14.93
2023-01-27T19:09:36.187Z,15.65
2023-01-27T19:12:48.192Z,17.20
2023-01-27T19:16:01.232Z,15.80
2023-01-27T19:19:16.987Z,17.08
2023-01-27T19:22:28.885Z,16.20
2023-01-27T19:25:41.052Z,15.50
2023-01-27T19:28:56.743Z,15.80
2023-01-27T19:32:09.276Z,15.53
2023-01-27T19:35:21.748Z,16.13
2023-01-27T19:38:36.035Z,18.10
2023-01-27T19:45:32.253Z,17.65
2023-01-27T19:48:44.808Z,16.08
2023-01-27T19:51:58.195Z,15.80
2023-01-27T19:55:12.146Z,17.35
2023-01-27T19:58:31.279Z,17.43
2023-01-27T20:01:44.188Z,17.25
2023-01-27T20:04:56.608Z,16.63
2023-01-27T20:08:09.894Z,17.88
2023-01-27T20:11:44.201Z,16.55
2023-01-27T20:14:56.625Z,18.43
2023-01-27T20:18:09.542Z,19.30
2023-01-27T20:21:23.079Z,17.88
2023-01-27T20:24:37.848Z,19.23
2023-01-27T20:27:53.846Z,18.38
2023-01-27T20:31:06.547Z,19.18
2023-01-27T20:34:18.704Z,18.63
2023-01-27T20:37:31.163Z,19.38
2023-01-27T20:40:43.486Z,19.95
2023-01-27T20:44:00.581Z,19.90
2023-01-27T20:47:13.378Z,19.43
2023-01-27T20:50:27.624Z,20.83
2023-01-27T20:53:44.733Z,20.65
2023-01-27T20:56:57.104Z,22.95
2023-01-27T21:00:14.698Z,20.45
2023-01-27T21:03:27.720Z,20.68
2023-01-27T21:06:40.281Z,21.38
2023-01-27T21:09:53.512Z,20.83
2023-01-27T21:13:07.988Z,19.65
2023-01-27T21:16:21.305Z,20.43
2023-01-27T21:19:33.692Z,21.33
2023-01-27T21:22:44.097Z,21.08
2023-01-27T21:25:56.467Z,21.28
2023-01-27T21:29:09.936Z,20.80
2023-01-27T21:32:22.545Z,20.48
2023-01-27T21:35:34.721Z,20.78
2023-01-27T21:38:47.393Z,20.93
2023-01-27T21:42:10.430Z,19.98
2023-01-27T21:45:24.172Z,22.23
2023-01-27T21:48:36.574Z,21.28
2023-01-27T21:51:50.289Z,20.48
2023-01-27T21:55:02.813Z,20.63
2023-01-27T21:58:14.945Z,20.95
2023-01-27T22:01:27.145Z,26.95
2023-01-27T22:04:39.383Z,18.08
2023-01-27T22:07:51.956Z,19.13
2023-01-27T22:11:11.696Z,19.10
2023-01-27T22:14:24.221Z,20.15
2023-01-27T22:17:36.897Z,21.65
2023-01-27T22:20:49.000Z,19.80
2023-01-27T22:24:01.158Z,19.70
2023-01-27T22:27:13.680Z,20.25
2023-01-27T22:30:27.352Z,21.20
2023-01-27T22:33:41.190Z,19.80
2023-01-27T22:36:53.778Z,19.68
2023-01-27T22:40:07.033Z,19.55
2023-01-27T22:43:19.647Z,22.78
2023-01-27T22:46:32.475Z,22.28
2023-01-27T22:49:44.786Z,22.40
2023-01-27T22:52:57.138Z,22.75
2023-01-27T22:56:11.679Z,21.75
2023-01-27T22:59:23.809Z,21.93
2023-01-27T23:02:36.227Z,19.55
2023-01-27T23:05:48.680Z,20.35
2023-01-27T23:09:01.238Z,20.63
2023-01-27T23:12:14.427Z,22.93
2023-01-27T23:15:26.739Z,23.05
2023-01-27T23:18:39.523Z,22.28
2023-01-27T23:21:51.756Z,24.65
2023-01-27T23:25:03.989Z,22.85
2023-01-27T23:28:17.513Z,22.83
2023-01-27T23:31:29.810Z,22.35
2023-01-27T23:34:42.549Z,23.10
2023-01-27T23:37:54.689Z,24.40
2023-01-27T23:41:12.745Z,24.75
2023-01-27T23:44:25.507Z,25.98
2023-01-27T23:47:37.583Z,26.15
2023-01-27T23:50:49.928Z,26.13
2023-01-27T23:54:03.165Z,23.33
2023-01-27T23:57:15.246Z,26.05
